Kanesville, Utah
Current Conditions -  °F | °C
As of 7:53 PM on Tuesday 21 Oct 2014 (Local Time) from KOGD Reporting Station
Few Clouds Few Clouds  
Wind Chill: 52°   Ceiling: Unl
Heat Index: 52°   Visibility: 10mi
Dew Point: 33°   Wind: 8mph
Humidity: 49%   Direction: 330°NNW
Pressure: 30.05"   Gusts: NA
Location:  41.1783°N, 112.12°W
Report Text: KOGD 220153Z 33007KT 10SM FEW110 11/01 A3005 RMK AO2 SLP141 T01110006
Loading
Personal Weather Stations






























Interactive Weather Map
Tropical Storm Tracking
New forecast layout! Learn more

10-Day Weather Forecast

Advertisements
Track Severe Weather on mobile